createdAt,value
2022-08-18T02:27:19.301Z,3.85
2022-08-18T02:29:47.641Z,3.60
2022-08-18T02:32:16.478Z,4.30
2022-08-18T02:34:44.360Z,4.07
2022-08-18T06:06:17.546Z,5.80
2022-08-18T06:08:54.292Z,5.80
2022-08-18T10:49:53.760Z,4.95
2022-08-18T10:52:51.311Z,4.53
2022-08-18T10:55:50.033Z,4.18
2022-08-18T10:58:36.611Z,4.68
2022-08-18T11:01:15.955Z,5.20
2022-08-18T11:04:14.355Z,4.53
2022-08-18T11:07:07.953Z,4.45
2022-08-18T11:09:41.414Z,4.38
2022-08-18T11:12:13.182Z,4.60
2022-08-18T11:15:23.472Z,4.20
2022-08-18T11:18:05.627Z,4.55
2022-08-18T11:20:42.991Z,4.07
2022-08-18T11:23:36.191Z,4.30
2022-08-18T11:26:35.093Z,4.40
2022-08-18T11:29:26.962Z,4.43
2022-08-18T11:34:52.893Z,4.50
2022-08-18T11:37:26.958Z,4.38
2022-08-18T11:39:57.745Z,4.55
2022-08-18T11:42:33.206Z,4.82
2022-08-18T11:45:06.867Z,4.70
2022-08-18T11:47:39.565Z,4.72
2022-08-18T11:50:10.402Z,4.45
2022-08-18T11:55:39.003Z,4.55
2022-08-18T11:58:12.839Z,4.30
2022-08-18T12:00:54.286Z,4.90
2022-08-18T12:03:30.083Z,4.63
2022-08-18T12:06:01.412Z,4.80
2022-08-18T12:08:58.096Z,4.53
2022-08-18T12:14:30.635Z,4.43
2022-08-18T12:17:02.345Z,4.57
2022-08-18T12:19:34.716Z,4.80
2022-08-18T12:22:15.572Z,4.78
2022-08-18T12:24:48.378Z,4.67
2022-08-18T12:27:21.582Z,4.60
2022-08-18T12:29:50.860Z,4.50
2022-08-18T12:32:47.064Z,4.55
2022-08-18T12:35:12.139Z,4.90
2022-08-18T12:38:12.253Z,4.80
2022-08-18T12:40:34.248Z,4.70
2022-08-18T12:43:02.725Z,4.00
2022-08-18T12:45:32.431Z,4.20
2022-08-18T12:48:04.080Z,4.55
2022-08-18T12:53:29.532Z,4.63
2022-08-18T12:56:08.563Z,4.47
2022-08-18T12:58:40.619Z,4.38
2022-08-18T13:01:08.673Z,4.88
2022-08-18T13:03:42.657Z,5.85
2022-08-18T13:06:15.348Z,4.60
2022-08-18T13:08:49.960Z,4.60
2022-08-18T13:11:25.040Z,4.40
2022-08-18T13:13:56.281Z,4.82
2022-08-18T13:16:30.755Z,4.50
2022-08-18T13:19:10.645Z,4.35
2022-08-18T13:21:41.651Z,4.65
2022-08-18T14:20:27.431Z,4.00
2022-08-18T14:23:21.462Z,3.88
2022-08-18T14:26:38.016Z,4.50
2022-08-18T14:29:06.718Z,4.03
2022-08-18T14:32:05.742Z,4.00
2022-08-18T14:34:33.743Z,4.07
2022-08-18T14:37:01.651Z,4.20
2022-08-18T14:39:31.006Z,4.35
2022-08-18T14:41:59.675Z,4.10
2022-08-18T14:44:34.128Z,4.27
2022-08-18T14:47:03.222Z,4.22
2022-08-18T14:49:31.533Z,4.10
2022-08-18T14:52:05.126Z,4.13
2022-08-18T14:54:40.690Z,4.10
2022-08-18T14:57:15.027Z,4.07
2022-08-18T14:59:43.350Z,3.90
2022-08-18T15:02:13.414Z,4.30
2022-08-18T15:04:53.112Z,3.97
2022-08-18T15:07:24.457Z,3.83
2022-08-18T15:10:14.329Z,3.72
2022-08-18T15:12:42.036Z,4.15
2022-08-18T15:15:16.793Z,4.45
2022-08-18T15:17:50.341Z,4.25
2022-08-18T15:20:29.776Z,4.35
2022-08-18T15:23:22.589Z,4.18
2022-08-18T15:29:15.029Z,4.10
2022-08-18T15:32:10.564Z,3.97
2022-08-18T15:34:46.510Z,4.25
2022-08-18T15:37:19.416Z,4.40
2022-08-18T15:39:51.720Z,3.95
2022-08-18T18:13:10.191Z,4.18
2022-08-18T18:15:40.117Z,4.53
2022-08-18T18:18:22.322Z,3.88
2022-08-18T18:21:06.170Z,4.03
2022-08-18T18:23:38.615Z,4.25
2022-08-18T18:26:49.637Z,4.20
2022-08-18T18:29:21.120Z,4.15
2022-08-18T18:32:24.432Z,4.57
2022-08-18T18:35:05.197Z,4.38
2022-08-18T18:37:50.502Z,4.32
2022-08-18T18:40:31.388Z,4.80
2022-08-18T18:43:21.802Z,4.83
2022-08-18T18:46:27.151Z,5.47
2022-08-18T18:49:03.046Z,5.68
2022-08-18T18:51:40.991Z,5.57
2022-08-18T18:54:20.913Z,5.27
2022-08-18T18:56:53.262Z,5.50
2022-08-18T18:59:35.552Z,6.40
2022-08-18T19:02:22.120Z,5.28
2022-08-18T19:05:07.718Z,5.22
2022-08-18T19:07:46.265Z,5.55
2022-08-18T19:10:21.968Z,5.50
2022-08-18T19:13:30.297Z,5.80
2022-08-18T19:16:23.214Z,5.47
2022-08-18T19:18:57.980Z,5.97
2022-08-18T19:22:15.026Z,5.73
2022-08-18T19:24:54.363Z,5.47
2022-08-18T19:27:30.097Z,5.63
2022-08-18T19:30:03.701Z,5.53
2022-08-18T19:33:00.280Z,6.22
2022-08-18T19:35:36.160Z,6.63
2022-08-18T19:38:20.791Z,5.33
2022-08-18T19:40:51.587Z,5.87
2022-08-18T19:43:29.703Z,5.88
2022-08-18T19:46:05.598Z,5.75
2022-08-18T19:48:42.756Z,6.10
2022-08-18T19:51:15.683Z,5.60
2022-08-18T19:54:10.257Z,5.57
2022-08-18T19:57:03.578Z,5.72
2022-08-18T20:00:10.830Z,5.18
2022-08-18T20:03:03.816Z,5.35
2022-08-18T20:05:40.433Z,5.70
2022-08-18T20:08:40.259Z,5.20
2022-08-18T20:11:41.309Z,5.25
2022-08-18T20:14:13.834Z,6.00
2022-08-18T20:17:20.253Z,5.03
